Time;durP1;ratioP1;P1;durP2;ratioP2;P2;SDS_P1;SDS_P2;PMS_P1;PMS_P2;Temp;Humidity;BMP_temperature;BMP_pressure;BME280_temperature;BME280_humidity;BME280_pressure;Samples;Min_cycle;Max_cycle;Signal;HPM_P1;HPM_P2
2023/12/27 00:00:21;;;;;;;25.45;8.88;;;;;;;;;;7366308;19;20035;-78
2023/12/27 00:02:46;;;;;;;25.23;10.70;;;;;;;;;;7360031;19;20399;-78
2023/12/27 00:05:11;;;;;;;21.90;9.38;;;;;;;;;;7361007;19;20239;-77
2023/12/27 00:07:37;;;;;;;24.67;11.20;;;;;;;;;;7354204;19;20062;-78
2023/12/27 00:10:02;;;;;;;30.07;10.17;;;;;;;;;;7362257;19;20006;-78
2023/12/27 00:12:27;;;;;;;28.00;10.48;;;;;;;;;;7359016;19;20545;-78
2023/12/27 00:14:52;;;;;;;31.05;10.48;;;;;;;;;;7361798;19;20010;-77
2023/12/27 00:17:17;;;;;;;33.53;13.48;;;;;;;;;;7365337;19;19987;-77
2023/12/27 00:19:43;;;;;;;36.50;15.40;;;;;;;;;;7362840;19;20015;-76
2023/12/27 00:22:08;;;;;;;35.78;14.52;;;;;;;;;;7357299;19;20118;-78
2023/12/27 00:24:33;;;;;;;38.20;14.80;;;;;;;;;;7359624;19;20589;-78
2023/12/27 00:26:58;;;;;;;36.20;14.88;;;;;;;;;;7361440;19;20247;-77
2023/12/27 00:29:23;;;;;;;31.10;13.60;;;;;;;;;;7365648;19;19998;-77
2023/12/27 00:31:48;;;;;;;28.87;12.00;;;;;;;;;;7356203;19;20015;-77
2023/12/27 00:34:15;;;;;;;26.43;10.17;;;;;;;;;;7367042;19;20356;-78
2023/12/27 00:36:40;;;;;;;30.27;11.32;;;;;;;;;;7354472;19;20355;-77
2023/12/27 00:39:08;;;;;;;33.90;10.32;;;;;;;;;;7362337;19;20010;-78
2023/12/27 00:41:33;;;;;;;21.90;10.10;;;;;;;;;;7361523;19;20252;-78
2023/12/27 00:43:58;;;;;;;25.60;11.30;;;;;;;;;;7363065;19;20411;-77
2023/12/27 00:46:23;;;;;;;22.20;10.95;;;;;;;;;;7364971;19;20239;-78
2023/12/27 00:48:48;;;;;;;21.57;11.43;;;;;;;;;;7359221;19;19995;-78
2023/12/27 00:51:20;;;;;;;22.83;11.90;;;;;;;;;;7343195;19;20263;-77
2023/12/27 00:53:45;;;;;;;27.83;12.57;;;;;;;;;;7353887;19;20616;-78
2023/12/27 00:56:10;;;;;;;19.77;11.48;;;;;;;;;;7364516;19;20493;-77
2023/12/27 00:58:35;;;;;;;24.50;11.02;;;;;;;;;;7362374;19;20266;-77
2023/12/27 01:01:00;;;;;;;26.73;11.50;;;;;;;;;;7343157;19;20002;-78
2023/12/27 01:03:26;;;;;;;28.63;11.57;;;;;;;;;;7365655;19;20376;-79
2023/12/27 01:05:51;;;;;;;20.95;10.20;;;;;;;;;;7353722;19;20997;-78
2023/12/27 01:08:16;;;;;;;25.40;10.90;;;;;;;;;;7350151;19;20008;-78
2023/12/27 01:10:41;;;;;;;39.08;11.82;;;;;;;;;;7361276;19;20279;-77
2023/12/27 01:13:07;;;;;;;24.73;10.93;;;;;;;;;;7358380;19;20470;-77
2023/12/27 01:15:32;;;;;;;25.52;14.18;;;;;;;;;;7363646;19;20239;-78
2023/12/27 01:17:57;;;;;;;33.65;14.63;;;;;;;;;;7355740;19;20006;-78
2023/12/27 01:20:23;;;;;;;35.83;17.47;;;;;;;;;;7363808;19;20016;-78
2023/12/27 01:22:48;;;;;;;34.85;17.55;;;;;;;;;;7341045;19;20254;-78
2023/12/27 01:25:14;;;;;;;31.73;13.32;;;;;;;;;;7349816;19;20606;-78
2023/12/27 01:27:39;;;;;;;24.63;13.50;;;;;;;;;;7361997;19;20453;-78
2023/12/27 01:30:04;;;;;;;25.50;11.82;;;;;;;;;;7363226;19;20097;-77
2023/12/27 01:32:30;;;;;;;33.92;14.60;;;;;;;;;;7361921;19;20014;-78
2023/12/27 01:34:55;;;;;;;28.65;15.80;;;;;;;;;;7358126;19;20011;-78
2023/12/27 01:37:20;;;;;;;34.72;17.88;;;;;;;;;;7358637;19;20440;-78
2023/12/27 01:39:45;;;;;;;32.78;16.60;;;;;;;;;;7362083;19;20006;-78
2023/12/27 01:42:11;;;;;;;34.40;18.67;;;;;;;;;;7365093;19;20475;-78
2023/12/27 01:44:36;;;;;;;39.13;18.13;;;;;;;;;;7370767;19;20230;-77
2023/12/27 01:47:01;;;;;;;31.88;17.98;;;;;;;;;;7368598;19;20435;-78
2023/12/27 01:49:26;;;;;;;37.80;18.40;;;;;;;;;;7371960;19;20002;-78
2023/12/27 01:51:51;;;;;;;36.92;18.95;;;;;;;;;;7330822;19;21005;-77
2023/12/27 01:54:17;;;;;;;38.10;18.92;;;;;;;;;;7350392;19;20443;-78
2023/12/27 01:56:43;;;;;;;37.67;18.95;;;;;;;;;;7365308;19;20134;-78
2023/12/27 01:59:09;;;;;;;50.97;19.70;;;;;;;;;;7378765;19;20021;-80
2023/12/27 02:01:35;;;;;;;36.00;18.50;;;;;;;;;;7384799;19;20003;-78
2023/12/27 02:04:00;;;;;;;36.95;17.90;;;;;;;;;;7384645;19;20817;-79
2023/12/27 02:06:25;;;;;;;35.42;18.92;;;;;;;;;;7380627;19;20007;-79
2023/12/27 02:08:51;;;;;;;49.60;19.70;;;;;;;;;;7378807;19;19999;-79
2023/12/27 02:11:16;;;;;;;40.65;19.73;;;;;;;;;;7384060;19;20014;-80
2023/12/27 02:13:41;;;;;;;38.78;18.58;;;;;;;;;;7383977;19;20419;-78
2023/12/27 02:16:06;;;;;;;36.10;19.00;;;;;;;;;;7377571;19;20399;-79
2023/12/27 02:18:32;;;;;;;47.20;18.80;;;;;;;;;;7380122;19;20010;-79
2023/12/27 02:20:57;;;;;;;35.97;18.38;;;;;;;;;;7378508;19;20255;-78
2023/12/27 02:23:23;;;;;;;34.97;16.42;;;;;;;;;;7382531;19;20018;-81
2023/12/27 02:25:48;;;;;;;33.58;16.77;;;;;;;;;;7383625;19;20018;-81
2023/12/27 02:28:13;;;;;;;30.35;16.00;;;;;;;;;;7384756;19;20006;-80
2023/12/27 02:30:39;;;;;;;34.73;17.23;;;;;;;;;;7379725;19;19999;-80
2023/12/27 02:33:04;;;;;;;33.78;16.63;;;;;;;;;;7384208;19;20252;-80
2023/12/27 02:35:30;;;;;;;30.90;17.45;;;;;;;;;;7378095;19;20011;-79
2023/12/27 02:37:55;;;;;;;35.03;16.52;;;;;;;;;;7379895;19;20480;-79
2023/12/27 02:40:20;;;;;;;33.43;16.20;;;;;;;;;;7383795;19;20016;-78
2023/12/27 02:42:46;;;;;;;28.67;15.10;;;;;;;;;;7378915;19;20336;-79
2023/12/27 02:45:11;;;;;;;28.77;16.40;;;;;;;;;;7383743;19;20275;-79
2023/12/27 02:47:36;;;;;;;31.13;16.73;;;;;;;;;;7383697;19;20078;-79
2023/12/27 02:50:03;;;;;;;31.43;17.00;;;;;;;;;;7374682;19;20807;-81
2023/12/27 02:52:28;;;;;;;29.55;15.88;;;;;;;;;;7334140;19;20265;-79
2023/12/27 02:54:55;;;;;;;29.38;14.52;;;;;;;;;;7355877;19;20066;-85
2023/12/27 02:57:20;;;;;;;27.27;15.80;;;;;;;;;;7355462;19;20074;-85
2023/12/27 02:59:45;;;;;;;35.38;16.33;;;;;;;;;;7349722;19;20390;-79
2023/12/27 03:02:11;;;;;;;25.27;14.80;;;;;;;;;;7354772;19;20133;-80
2023/12/27 03:04:36;;;;;;;27.50;14.52;;;;;;;;;;7355265;19;20669;-79
2023/12/27 03:07:01;;;;;;;27.03;14.77;;;;;;;;;;7354709;19;20376;-86
2023/12/27 03:09:27;;;;;;;26.08;14.70;;;;;;;;;;7361308;19;20283;-79
2023/12/27 03:11:52;;;;;;;25.73;14.95;;;;;;;;;;7347877;19;19991;-84
2023/12/27 03:14:17;;;;;;;35.83;17.80;;;;;;;;;;7353939;19;20319;-82
2023/12/27 03:16:42;;;;;;;24.65;15.30;;;;;;;;;;7352330;19;19990;-84
2023/12/27 03:19:08;;;;;;;33.50;18.85;;;;;;;;;;7347311;19;20407;-80
2023/12/27 03:21:33;;;;;;;31.98;18.25;;;;;;;;;;7357053;19;19995;-82
2023/12/27 03:23:58;;;;;;;32.03;16.70;;;;;;;;;;7351940;19;20054;-85
2023/12/27 03:26:23;;;;;;;32.33;17.10;;;;;;;;;;7353924;19;20410;-85
2023/12/27 03:28:49;;;;;;;30.95;17.55;;;;;;;;;;7351002;19;20412;-84
2023/12/27 03:31:14;;;;;;;36.63;17.05;;;;;;;;;;7359200;19;20318;-85
2023/12/27 03:33:40;;;;;;;30.02;17.65;;;;;;;;;;7354209;19;20446;-86
2023/12/27 03:36:05;;;;;;;35.25;17.48;;;;;;;;;;7356338;19;20027;-83
2023/12/27 03:38:30;;;;;;;34.13;17.90;;;;;;;;;;7347674;19;20421;-86
2023/12/27 03:40:55;;;;;;;155.00;27.58;;;;;;;;;;7349078;19;20050;-85
2023/12/27 03:43:21;;;;;;;49.95;19.80;;;;;;;;;;7353039;19;20003;-86
2023/12/27 03:45:46;;;;;;;84.05;19.75;;;;;;;;;;7356971;19;20067;-82
2023/12/27 03:48:11;;;;;;;245.00;28.63;;;;;;;;;;7350322;19;20019;-82
2023/12/27 03:50:36;;;;;;;71.75;18.60;;;;;;;;;;7364362;19;20010;-82
2023/12/27 03:53:02;;;;;;;33.70;16.02;;;;;;;;;;7382120;19;20018;-79
2023/12/27 03:55:27;;;;;;;50.63;18.42;;;;;;;;;;7377880;19;20479;-79
2023/12/27 03:57:52;;;;;;;34.80;17.57;;;;;;;;;;7380141;19;19998;-82
2023/12/27 04:00:18;;;;;;;31.85;15.93;;;;;;;;;;7378291;19;20694;-79
2023/12/27 04:02:43;;;;;;;21.73;13.73;;;;;;;;;;7377736;19;20066;-79
2023/12/27 04:05:09;;;;;;;26.70;13.73;;;;;;;;;;7379349;19;20006;-80
2023/12/27 04:07:34;;;;;;;22.02;13.10;;;;;;;;;;7382827;19;20316;-83
2023/12/27 04:09:59;;;;;;;22.05;12.00;;;;;;;;;;7378028;19;20009;-83
2023/12/27 04:12:24;;;;;;;34.38;14.25;;;;;;;;;;7380830;19;20022;-81
2023/12/27 04:14:49;;;;;;;21.40;12.30;;;;;;;;;;7379549;19;20009;-79
2023/12/27 04:17:15;;;;;;;22.93;10.83;;;;;;;;;;7378720;19;20565;-81
2023/12/27 04:19:40;;;;;;;18.17;10.73;;;;;;;;;;7380483;19;20241;-85
2023/12/27 04:22:05;;;;;;;61.95;14.60;;;;;;;;;;7378440;19;20007;-83
2023/12/27 04:24:30;;;;;;;76.78;14.82;;;;;;;;;;7379894;19;20379;-80
2023/12/27 04:26:56;;;;;;;46.97;10.90;;;;;;;;;;7379196;19;20082;-80
2023/12/27 04:29:21;;;;;;;42.50;11.57;;;;;;;;;;7381718;19;20250;-80
2023/12/27 04:31:47;;;;;;;126.57;14.63;;;;;;;;;;7379468;19;20308;-80
2023/12/27 04:34:12;;;;;;;324.08;24.70;;;;;;;;;;7379481;19;19995;-79
2023/12/27 04:36:37;;;;;;;377.98;27.88;;;;;;;;;;7377508;19;20010;-84
2023/12/27 04:39:02;;;;;;;19.17;9.18;;;;;;;;;;7379010;19;20344;-84
2023/12/27 04:41:28;;;;;;;78.03;12.07;;;;;;;;;;7380805;19;19999;-78
2023/12/27 04:43:53;;;;;;;38.47;9.68;;;;;;;;;;7379849;19;20035;-78
2023/12/27 04:46:18;;;;;;;357.15;25.20;;;;;;;;;;7377946;19;20310;-78
2023/12/27 04:48:43;;;;;;;39.90;9.97;;;;;;;;;;7378650;19;20022;-82
2023/12/27 04:51:08;;;;;;;326.30;25.00;;;;;;;;;;7374644;19;20243;-79
2023/12/27 04:53:33;;;;;;;292.83;20.90;;;;;;;;;;7379811;19;20235;-80
2023/12/27 04:55:59;;;;;;;22.90;9.63;;;;;;;;;;7375357;19;20268;-79
2023/12/27 04:58:24;;;;;;;58.17;11.65;;;;;;;;;;7377110;19;20005;-79
2023/12/27 05:00:49;;;;;;;74.43;11.63;;;;;;;;;;7380089;19;20790;-80
2023/12/27 05:03:14;;;;;;;295.77;21.88;;;;;;;;;;7376311;19;20379;-79
2023/12/27 05:05:40;;;;;;;209.90;16.92;;;;;;;;;;7377668;19;20316;-80
2023/12/27 05:08:05;;;;;;;84.05;10.63;;;;;;;;;;7377306;19;19998;-79
2023/12/27 05:10:30;;;;;;;50.63;10.48;;;;;;;;;;7382704;19;20072;-80
2023/12/27 05:12:55;;;;;;;447.57;27.73;;;;;;;;;;7381809;19;19998;-79
2023/12/27 05:15:20;;;;;;;82.15;9.90;;;;;;;;;;7386388;19;20680;-79
2023/12/27 05:17:46;;;;;;;400.73;25.77;;;;;;;;;;7386544;19;19995;-80
2023/12/27 05:20:14;;;;;;;167.30;13.45;;;;;;;;;;7385066;19;20348;-79
2023/12/27 05:22:40;;;;;;;35.42;7.72;;;;;;;;;;7385815;19;20001;-80
2023/12/27 05:25:08;;;;;;;48.28;8.70;;;;;;;;;;7387249;19;20005;-84
2023/12/27 05:27:33;;;;;;;12.80;6.38;;;;;;;;;;7387697;19;20703;-78
2023/12/27 05:29:58;;;;;;;10.35;5.68;;;;;;;;;;7388542;19;20006;-79
2023/12/27 05:32:23;;;;;;;16.98;6.90;;;;;;;;;;7384558;19;20018;-79
2023/12/27 05:34:49;;;;;;;15.98;6.35;;;;;;;;;;7381725;19;20002;-86
2023/12/27 05:37:14;;;;;;;10.55;5.53;;;;;;;;;;7381150;19;20085;-81
2023/12/27 05:39:39;;;;;;;14.30;7.97;;;;;;;;;;7387042;19;19999;-79
2023/12/27 05:42:05;;;;;;;10.38;6.03;;;;;;;;;;7387100;19;20340;-81
2023/12/27 05:44:30;;;;;;;8.27;4.88;;;;;;;;;;7383170;19;20271;-79
2023/12/27 05:46:55;;;;;;;11.50;6.43;;;;;;;;;;7387203;19;20003;-81
2023/12/27 05:49:21;;;;;;;11.70;6.90;;;;;;;;;;7384575;19;20371;-82
2023/12/27 05:51:46;;;;;;;10.17;5.23;;;;;;;;;;7386181;19;20014;-78
2023/12/27 05:54:13;;;;;;;10.95;5.13;;;;;;;;;;7385897;19;20339;-80
2023/12/27 05:56:38;;;;;;;8.55;4.80;;;;;;;;;;7387406;19;20806;-83
2023/12/27 05:59:04;;;;;;;9.98;5.22;;;;;;;;;;7386780;19;20007;-79
2023/12/27 06:01:29;;;;;;;15.85;6.20;;;;;;;;;;7387100;19;20617;-81
2023/12/27 06:03:54;;;;;;;13.38;6.55;;;;;;;;;;7385622;19;19999;-79
2023/12/27 06:06:19;;;;;;;15.68;5.93;;;;;;;;;;7383296;19;19994;-79
2023/12/27 06:08:45;;;;;;;64.07;9.45;;;;;;;;;;7385785;19;20244;-79
2023/12/27 06:11:12;;;;;;;191.63;17.73;;;;;;;;;;7384544;19;20060;-80
2023/12/27 06:13:38;;;;;;;368.08;25.35;;;;;;;;;;7386515;19;20431;-80
2023/12/27 06:16:03;;;;;;;381.80;26.27;;;;;;;;;;7386075;19;20002;-79
2023/12/27 06:18:28;;;;;;;301.15;23.65;;;;;;;;;;7380845;19;20013;-82
2023/12/27 06:20:54;;;;;;;499.70;30.88;;;;;;;;;;7384811;19;20006;-80
2023/12/27 06:23:19;;;;;;;468.52;28.75;;;;;;;;;;7383796;19;20006;-79
2023/12/27 06:25:44;;;;;;;377.77;25.57;;;;;;;;;;7383609;19;19999;-80
2023/12/27 06:28:09;;;;;;;400.00;26.57;;;;;;;;;;7384165;19;20247;-79
2023/12/27 06:30:34;;;;;;;278.92;21.10;;;;;;;;;;7382474;19;20678;-80
2023/12/27 06:33:00;;;;;;;316.42;23.35;;;;;;;;;;7384630;19;20006;-80
2023/12/27 06:35:25;;;;;;;409.97;27.00;;;;;;;;;;7382477;19;20251;-80
2023/12/27 06:37:50;;;;;;;504.10;33.33;;;;;;;;;;7383931;19;20256;-78
2023/12/27 06:40:15;;;;;;;450.27;28.40;;;;;;;;;;7383726;19;20255;-80
2023/12/27 06:42:40;;;;;;;252.63;21.07;;;;;;;;;;7384371;19;20338;-79
2023/12/27 06:45:06;;;;;;;252.73;19.93;;;;;;;;;;7385111;19;20243;-79
2023/12/27 06:47:31;;;;;;;329.15;24.05;;;;;;;;;;7381852;19;20794;-80
2023/12/27 06:49:56;;;;;;;190.17;20.33;;;;;;;;;;7379667;19;20118;-83
2023/12/27 06:52:21;;;;;;;18.38;9.68;;;;;;;;;;7379362;19;20270;-82
2023/12/27 06:54:46;;;;;;;20.43;8.87;;;;;;;;;;7382801;19;20110;-79
2023/12/27 06:57:11;;;;;;;12.90;7.68;;;;;;;;;;7379987;19;20270;-80
2023/12/27 06:59:37;;;;;;;12.57;6.95;;;;;;;;;;7382291;19;20126;-82
2023/12/27 07:02:04;;;;;;;10.90;5.85;;;;;;;;;;7376424;19;20454;-82
2023/12/27 07:04:29;;;;;;;9.30;5.03;;;;;;;;;;7380315;19;20137;-81
2023/12/27 07:06:55;;;;;;;11.57;5.73;;;;;;;;;;7377319;19;20561;-82
2023/12/27 07:09:21;;;;;;;10.13;5.18;;;;;;;;;;7378133;19;20363;-80
2023/12/27 07:11:46;;;;;;;11.10;5.72;;;;;;;;;;7378241;19;20252;-76
2023/12/27 07:14:11;;;;;;;11.83;5.63;;;;;;;;;;7377435;19;19998;-80
2023/12/27 07:16:37;;;;;;;16.88;6.55;;;;;;;;;;7366517;19;20263;-80
2023/12/27 07:19:03;;;;;;;9.75;5.68;;;;;;;;;;7372133;19;20150;-80
2023/12/27 07:21:30;;;;;;;11.50;5.78;;;;;;;;;;7367341;19;20006;-79
2023/12/27 07:23:55;;;;;;;11.85;5.50;;;;;;;;;;7370910;19;20191;-80
2023/12/27 07:26:20;;;;;;;12.70;5.95;;;;;;;;;;7369484;19;20077;-80
2023/12/27 07:28:45;;;;;;;10.13;5.03;;;;;;;;;;7374589;19;20247;-81
2023/12/27 07:31:10;;;;;;;12.57;5.88;;;;;;;;;;7375525;19;20281;-79
2023/12/27 07:33:39;;;;;;;12.97;5.87;;;;;;;;;;7371853;19;19995;-81
2023/12/27 07:36:04;;;;;;;11.68;6.03;;;;;;;;;;7363026;19;20963;-79
2023/12/27 07:38:29;;;;;;;9.60;5.70;;;;;;;;;;7367589;19;20014;-80
2023/12/27 07:40:56;;;;;;;15.83;6.57;;;;;;;;;;7369631;19;19990;-80
2023/12/27 07:43:22;;;;;;;15.55;7.55;;;;;;;;;;7370687;19;20247;-81
2023/12/27 07:45:48;;;;;;;13.20;7.07;;;;;;;;;;7374461;19;19998;-80
2023/12/27 07:48:13;;;;;;;16.10;7.85;;;;;;;;;;7371770;19;20202;-80
2023/12/27 07:50:39;;;;;;;19.05;8.88;;;;;;;;;;7365220;19;20339;-79
2023/12/27 07:53:05;;;;;;;19.58;9.23;;;;;;;;;;7375438;19;20247;-79
2023/12/27 07:55:30;;;;;;;17.95;8.60;;;;;;;;;;7367143;19;19994;-80
2023/12/27 07:57:56;;;;;;;17.37;9.30;;;;;;;;;;7372702;19;20014;-81
2023/12/27 08:00:21;;;;;;;19.65;9.35;;;;;;;;;;7368815;19;20243;-80
2023/12/27 08:02:46;;;;;;;23.58;10.13;;;;;;;;;;7368954;19;19998;-79
2023/12/27 08:05:12;;;;;;;25.50;10.32;;;;;;;;;;7371268;19;20075;-80
2023/12/27 08:07:38;;;;;;;26.02;10.40;;;;;;;;;;7372871;19;20360;-81
2023/12/27 08:10:04;;;;;;;24.42;10.68;;;;;;;;;;7374011;19;20071;-80
2023/12/27 08:12:30;;;;;;;23.77;9.73;;;;;;;;;;7371191;19;20438;-79
2023/12/27 08:14:56;;;;;;;27.35;9.98;;;;;;;;;;7370656;19;20009;-79
2023/12/27 08:17:22;;;;;;;23.45;9.25;;;;;;;;;;7370699;19;20304;-80
2023/12/27 08:19:47;;;;;;;24.13;11.00;;;;;;;;;;7370310;19;20072;-80
2023/12/27 08:22:12;;;;;;;25.27;10.57;;;;;;;;;;7374836;19;20650;-80
2023/12/27 08:24:37;;;;;;;26.80;10.77;;;;;;;;;;7368974;19;20622;-80
2023/12/27 08:27:02;;;;;;;28.53;10.60;;;;;;;;;;7373929;19;20301;-80
2023/12/27 08:29:28;;;;;;;22.08;9.90;;;;;;;;;;7355375;19;20326;-82
2023/12/27 08:31:53;;;;;;;27.43;10.53;;;;;;;;;;7374566;19;19987;-80
2023/12/27 08:34:19;;;;;;;21.30;9.60;;;;;;;;;;7373477;19;20259;-80
2023/12/27 08:36:48;;;;;;;21.55;8.02;;;;;;;;;;7367822;19;20268;-80
2023/12/27 08:39:14;;;;;;;22.23;9.50;;;;;;;;;;7373050;19;19999;-80
2023/12/27 08:41:39;;;;;;;21.25;8.65;;;;;;;;;;7367368;19;20439;-80
2023/12/27 08:44:04;;;;;;;25.63;8.55;;;;;;;;;;7369603;19;20038;-80
2023/12/27 08:46:29;;;;;;;17.52;8.32;;;;;;;;;;7370514;19;20320;-81
2023/12/27 08:48:55;;;;;;;20.35;9.20;;;;;;;;;;7374118;19;20002;-81
2023/12/27 08:51:20;;;;;;;23.65;9.32;;;;;;;;;;7378051;19;20001;-80
2023/12/27 08:53:45;;;;;;;16.85;8.13;;;;;;;;;;7376080;19;19999;-80
2023/12/27 08:56:10;;;;;;;21.37;8.17;;;;;;;;;;7379897;19;20272;-81
2023/12/27 08:58:35;;;;;;;27.52;8.45;;;;;;;;;;7361486;19;20779;-80
2023/12/27 09:01:02;;;;;;;23.38;9.07;;;;;;;;;;7378946;19;19998;-81
2023/12/27 09:03:27;;;;;;;24.17;8.77;;;;;;;;;;7378795;19;19994;-81
2023/12/27 09:05:52;;;;;;;23.15;8.30;;;;;;;;;;7365038;19;20017;-80
2023/12/27 09:08:17;;;;;;;28.75;9.13;;;;;;;;;;7380892;19;20010;-80
2023/12/27 09:10:42;;;;;;;21.38;8.38;;;;;;;;;;7378675;19;20365;-80
2023/12/27 09:13:07;;;;;;;24.02;8.82;;;;;;;;;;7377816;19;20026;-81
2023/12/27 09:15:33;;;;;;;19.00;7.80;;;;;;;;;;7379290;19;20047;-80
2023/12/27 09:17:58;;;;;;;19.80;8.20;;;;;;;;;;7376901;19;20354;-80
2023/12/27 09:20:23;;;;;;;28.25;8.10;;;;;;;;;;7377593;19;20235;-80
2023/12/27 09:22:48;;;;;;;26.92;8.30;;;;;;;;;;7379326;19;20474;-80
2023/12/27 09:25:14;;;;;;;22.25;8.40;;;;;;;;;;7379860;19;20348;-80
2023/12/27 09:27:39;;;;;;;24.30;8.50;;;;;;;;;;7374750;19;20453;-80
2023/12/27 09:30:05;;;;;;;19.52;7.55;;;;;;;;;;7379242;19;20010;-80
2023/12/27 09:32:30;;;;;;;17.13;7.28;;;;;;;;;;7374265;19;20414;-81
2023/12/27 09:34:55;;;;;;;19.88;7.13;;;;;;;;;;7372992;19;20770;-80
2023/12/27 09:37:20;;;;;;;15.43;6.78;;;;;;;;;;7374436;19;20399;-81
2023/12/27 09:39:45;;;;;;;24.20;7.60;;;;;;;;;;7377040;19;20614;-80
2023/12/27 09:42:12;;;;;;;14.77;6.07;;;;;;;;;;7376658;19;20035;-81
2023/12/27 09:44:38;;;;;;;19.98;6.00;;;;;;;;;;7352194;19;20037;-81
2023/12/27 09:47:04;;;;;;;12.85;5.25;;;;;;;;;;7373143;19;20403;-81
2023/12/27 09:49:30;;;;;;;14.30;5.07;;;;;;;;;;7376626;19;20052;-81
2023/12/27 09:51:56;;;;;;;13.55;5.75;;;;;;;;;;7374981;19;20003;-81
2023/12/27 09:54:21;;;;;;;12.38;5.32;;;;;;;;;;7378138;19;20031;-80
2023/12/27 09:56:47;;;;;;;16.33;5.03;;;;;;;;;;7373441;19;20573;-80
2023/12/27 09:59:17;;;;;;;13.80;4.28;;;;;;;;;;7374693;19;19994;-81
2023/12/27 10:01:44;;;;;;;10.88;3.70;;;;;;;;;;7373795;19;20439;-79
2023/12/27 10:04:25;;;;;;;10.73;4.32;;;;;;;;;;7379149;19;20006;-81
2023/12/27 10:06:51;;;;;;;10.65;3.97;;;;;;;;;;7354499;19;20022;-80
2023/12/27 10:09:17;;;;;;;16.50;4.63;;;;;;;;;;7376085;19;20872;-80
2023/12/27 10:11:42;;;;;;;13.18;3.92;;;;;;;;;;7375837;19;19995;-80
2023/12/27 10:14:11;;;;;;;12.27;3.83;;;;;;;;;;7374771;19;20013;-81
2023/12/27 10:16:37;;;;;;;7.35;3.38;;;;;;;;;;7375029;19;20285;-80
2023/12/27 10:19:04;;;;;;;12.32;3.85;;;;;;;;;;7378370;19;20109;-81
2023/12/27 10:21:39;;;;;;;11.18;3.97;;;;;;;;;;7367908;19;20478;-81
2023/12/27 10:24:05;;;;;;;9.68;3.67;;;;;;;;;;7377856;19;20040;-80
2023/12/27 10:26:30;;;;;;;13.70;4.38;;;;;;;;;;7377320;19;20424;-80
2023/12/27 10:28:55;;;;;;;16.20;4.73;;;;;;;;;;7377153;19;20030;-80
2023/12/27 10:31:22;;;;;;;18.55;5.20;;;;;;;;;;7378556;19;20318;-80
2023/12/27 10:33:47;;;;;;;13.65;4.57;;;;;;;;;;7377152;19;20259;-81
2023/12/27 10:36:13;;;;;;;11.23;4.72;;;;;;;;;;7367937;19;20006;-80
2023/12/27 10:38:38;;;;;;;16.00;5.60;;;;;;;;;;7368969;19;20111;-80
2023/12/27 10:41:06;;;;;;;20.13;5.85;;;;;;;;;;7376537;19;19998;-80
2023/12/27 10:43:32;;;;;;;19.02;7.13;;;;;;;;;;7374053;19;20490;-82
2023/12/27 10:45:58;;;;;;;18.52;5.57;;;;;;;;;;7374889;19;20010;-80
2023/12/27 10:48:24;;;;;;;16.05;5.70;;;;;;;;;;7375410;19;20006;-80
2023/12/27 10:50:49;;;;;;;14.63;5.30;;;;;;;;;;7371201;19;20497;-80
2023/12/27 10:53:18;;;;;;;17.33;5.40;;;;;;;;;;7375738;19;19998;-80
2023/12/27 10:55:45;;;;;;;16.48;5.53;;;;;;;;;;7374669;19;20464;-80
2023/12/27 10:58:15;;;;;;;13.35;5.50;;;;;;;;;;7372826;19;20002;-81
2023/12/27 11:00:41;;;;;;;13.77;5.68;;;;;;;;;;7365314;19;20058;-80
2023/12/27 11:03:07;;;;;;;19.63;5.53;;;;;;;;;;7373732;19;20099;-79
2023/12/27 11:05:33;;;;;;;17.98;6.45;;;;;;;;;;7371851;19;20475;-81
2023/12/27 11:07:58;;;;;;;15.45;5.30;;;;;;;;;;7372315;19;20089;-80
2023/12/27 11:10:24;;;;;;;18.10;7.30;;;;;;;;;;7373820;19;20006;-80
2023/12/27 11:12:50;;;;;;;15.75;6.72;;;;;;;;;;7371882;19;20041;-80
2023/12/27 11:15:16;;;;;;;18.60;6.63;;;;;;;;;;7356484;19;20051;-80
2023/12/27 11:17:41;;;;;;;20.42;6.82;;;;;;;;;;7371194;19;20015;-81
2023/12/27 11:20:10;;;;;;;19.80;6.95;;;;;;;;;;7373126;19;20451;-80
2023/12/27 11:22:36;;;;;;;18.02;7.43;;;;;;;;;;7372635;19;20014;-80
2023/12/27 11:25:01;;;;;;;17.13;7.57;;;;;;;;;;7374062;19;20386;-81
2023/12/27 11:27:26;;;;;;;23.52;7.72;;;;;;;;;;7372615;19;20003;-82
2023/12/27 11:29:52;;;;;;;20.40;8.57;;;;;;;;;;7370407;19;20026;-80
2023/12/27 11:32:17;;;;;;;23.85;7.97;;;;;;;;;;7371071;19;20154;-80
2023/12/27 11:34:42;;;;;;;20.02;7.70;;;;;;;;;;7367118;19;20025;-81
2023/12/27 11:37:08;;;;;;;20.35;7.05;;;;;;;;;;7357848;19;20026;-80
2023/12/27 11:39:33;;;;;;;19.67;7.33;;;;;;;;;;7373074;19;19995;-81
2023/12/27 11:42:00;;;;;;;19.33;7.75;;;;;;;;;;7372606;19;20846;-81
2023/12/27 11:44:36;;;;;;;20.27;7.78;;;;;;;;;;7371016;19;20431;-80
2023/12/27 11:47:03;;;;;;;18.60;7.30;;;;;;;;;;7367671;19;20558;-80
2023/12/27 11:49:31;;;;;;;19.27;7.47;;;;;;;;;;7373297;19;20003;-81
2023/12/27 11:51:56;;;;;;;18.55;8.25;;;;;;;;;;7369981;19;20424;-80
2023/12/27 11:54:25;;;;;;;20.05;8.45;;;;;;;;;;7369631;19;20030;-80
2023/12/27 11:56:54;;;;;;;17.65;8.50;;;;;;;;;;7369868;19;20816;-80
2023/12/27 11:59:21;;;;;;;19.88;8.73;;;;;;;;;;7373472;19;20076;-80
2023/12/27 12:01:47;;;;;;;22.23;9.32;;;;;;;;;;7370269;19;19999;-80
2023/12/27 12:04:12;;;;;;;23.98;9.05;;;;;;;;;;7368168;19;20029;-81
2023/12/27 12:06:44;;;;;;;20.73;7.93;;;;;;;;;;7368923;19;20064;-81
2023/12/27 12:09:09;;;;;;;16.50;8.55;;;;;;;;;;7368812;19;20336;-80
2023/12/27 12:11:35;;;;;;;20.00;8.98;;;;;;;;;;7371902;19;20015;-80
2023/12/27 12:14:00;;;;;;;19.95;8.98;;;;;;;;;;7372627;19;20282;-80
2023/12/27 12:16:31;;;;;;;19.30;7.75;;;;;;;;;;7371290;19;20194;-80
2023/12/27 12:18:57;;;;;;;17.08;7.55;;;;;;;;;;7365369;19;20470;-80
2023/12/27 12:21:22;;;;;;;23.08;8.07;;;;;;;;;;7369087;19;20118;-80
2023/12/27 12:23:47;;;;;;;18.13;7.70;;;;;;;;;;7367108;19;20061;-80
2023/12/27 12:26:12;;;;;;;19.42;7.03;;;;;;;;;;7372205;19;20259;-80
2023/12/27 12:28:38;;;;;;;17.63;7.10;;;;;;;;;;7370503;19;20042;-82
2023/12/27 12:31:03;;;;;;;16.73;7.30;;;;;;;;;;7371252;19;20003;-80
2023/12/27 12:33:28;;;;;;;19.52;7.60;;;;;;;;;;7372395;19;20384;-81
2023/12/27 12:35:57;;;;;;;20.75;6.80;;;;;;;;;;7367352;19;20034;-80
2023/12/27 12:38:22;;;;;;;13.77;6.68;;;;;;;;;;7369642;19;19998;-80
2023/12/27 12:40:47;;;;;;;22.25;7.60;;;;;;;;;;7370075;19;20003;-81
2023/12/27 12:43:14;;;;;;;22.70;7.82;;;;;;;;;;7372921;19;20066;-81
2023/12/27 12:45:39;;;;;;;19.63;7.40;;;;;;;;;;7370219;19;20003;-82
2023/12/27 12:48:04;;;;;;;20.02;6.93;;;;;;;;;;7369010;19;20490;-80
2023/12/27 12:50:29;;;;;;;17.13;7.20;;;;;;;;;;7362213;19;19999;-81
2023/12/27 12:52:55;;;;;;;19.05;6.82;;;;;;;;;;7360307;19;20081;-80
2023/12/27 12:55:22;;;;;;;17.63;6.00;;;;;;;;;;7373352;19;20037;-81
2023/12/27 12:57:48;;;;;;;17.52;7.35;;;;;;;;;;7368906;19;20002;-80
2023/12/27 13:00:19;;;;;;;21.63;6.55;;;;;;;;;;7370308;19;20099;-81
2023/12/27 13:02:47;;;;;;;14.85;6.00;;;;;;;;;;7367059;19;19999;-81
2023/12/27 13:05:12;;;;;;;19.30;6.55;;;;;;;;;;7366586;19;20022;-81
2023/12/27 13:07:37;;;;;;;19.50;6.75;;;;;;;;;;7368637;19;20006;-81
2023/12/27 13:10:02;;;;;;;16.88;6.97;;;;;;;;;;7368836;19;20022;-80
2023/12/27 13:12:29;;;;;;;16.08;6.25;;;;;;;;;;7363987;19;20252;-81
2023/12/27 13:14:55;;;;;;;16.55;6.10;;;;;;;;;;7368689;19;19999;-81
2023/12/27 13:17:20;;;;;;;13.90;6.07;;;;;;;;;;7369140;19;20114;-81
2023/12/27 13:19:45;;;;;;;13.63;5.78;;;;;;;;;;7361442;19;20006;-82
2023/12/27 13:22:11;;;;;;;15.02;5.57;;;;;;;;;;7363677;19;20032;-80
2023/12/27 13:24:36;;;;;;;14.85;5.38;;;;;;;;;;7372492;19;20006;-80
2023/12/27 13:27:02;;;;;;;17.20;6.07;;;;;;;;;;7366954;19;20025;-80
2023/12/27 13:29:27;;;;;;;16.80;5.40;;;;;;;;;;7369936;19;19999;-80
2023/12/27 13:31:52;;;;;;;18.98;6.00;;;;;;;;;;7366078;19;20281;-80
2023/12/27 13:34:17;;;;;;;19.13;5.72;;;;;;;;;;7370835;19;20292;-80
2023/12/27 13:36:43;;;;;;;17.67;5.80;;;;;;;;;;7374966;19;19994;-81
2023/12/27 13:39:08;;;;;;;17.13;6.07;;;;;;;;;;7374424;19;20262;-80
2023/12/27 13:41:33;;;;;;;21.10;7.07;;;;;;;;;;7375628;19;20006;-80
2023/12/27 13:43:58;;;;;;;22.52;6.93;;;;;;;;;;7373706;19;20102;-81
2023/12/27 13:46:23;;;;;;;17.15;6.47;;;;;;;;;;7374403;19;20471;-80
2023/12/27 13:48:49;;;;;;;16.13;6.45;;;;;;;;;;7374210;19;20248;-80
2023/12/27 13:51:14;;;;;;;22.58;6.57;;;;;;;;;;7368550;19;20464;-80
2023/12/27 13:53:39;;;;;;;15.18;6.38;;;;;;;;;;7376573;19;20263;-80
2023/12/27 13:56:05;;;;;;;24.20;7.27;;;;;;;;;;7373717;19;20302;-79
2023/12/27 13:58:31;;;;;;;17.23;6.28;;;;;;;;;;7373107;19;21471;-80
2023/12/27 14:00:56;;;;;;;18.42;6.85;;;;;;;;;;7369993;19;20014;-81
2023/12/27 14:03:21;;;;;;;19.67;6.78;;;;;;;;;;7374384;19;20126;-81
2023/12/27 14:05:47;;;;;;;23.63;6.63;;;;;;;;;;7372122;19;20775;-82
2023/12/27 14:08:12;;;;;;;20.52;6.35;;;;;;;;;;7376981;19;20251;-80
2023/12/27 14:10:37;;;;;;;18.10;6.47;;;;;;;;;;7372992;19;20038;-81
2023/12/27 14:13:02;;;;;;;14.98;6.50;;;;;;;;;;7374510;19;20364;-81